createdAt,value
2016-11-19T00:00:52.468Z,0
2016-11-19T00:01:52.493Z,0
2016-11-19T00:02:52.508Z,0
2016-11-19T00:03:52.528Z,0
2016-11-19T00:04:52.539Z,0
2016-11-19T00:05:52.556Z,0
2016-11-19T00:06:52.562Z,0
2016-11-19T00:07:52.574Z,0
2016-11-19T00:08:52.587Z,0
2016-11-19T00:09:52.591Z,0
2016-11-19T00:10:52.841Z,0
2016-11-19T00:11:52.631Z,0
2016-11-19T00:12:52.642Z,0
2016-11-19T00:13:52.660Z,0
2016-11-19T00:14:52.672Z,0
2016-11-19T00:15:52.680Z,0
2016-11-19T00:16:52.731Z,0
2016-11-19T00:17:52.704Z,0
2016-11-19T00:18:52.726Z,0
2016-11-19T00:19:52.743Z,0
2016-11-19T00:20:52.741Z,0
2016-11-19T00:21:52.770Z,0
2016-11-19T00:22:52.777Z,0
2016-11-19T00:23:52.792Z,0
2016-11-19T00:24:52.813Z,0
2016-11-19T00:25:53.152Z,0
2016-11-19T00:26:52.838Z,0
2016-11-19T00:27:52.864Z,0
2016-11-19T00:28:52.863Z,0
2016-11-19T00:29:53.708Z,0
2016-11-19T00:30:52.889Z,0
2016-11-19T00:31:52.909Z,0
2016-11-19T00:32:52.957Z,0
2016-11-19T00:33:52.963Z,0
2016-11-19T00:34:52.957Z,0
2016-11-19T00:35:52.962Z,0
2016-11-19T00:36:52.966Z,0
2016-11-19T00:37:53.002Z,0
2016-11-19T00:38:52.999Z,0
2016-11-19T00:39:53.019Z,0
2016-11-19T00:40:53.028Z,0
2016-11-19T00:41:53.045Z,0
2016-11-19T00:42:53.050Z,0
2016-11-19T00:43:53.072Z,0
2016-11-19T00:44:53.089Z,0
2016-11-19T00:45:53.101Z,0
2016-11-19T00:46:53.111Z,0
2016-11-19T00:47:53.145Z,0
2016-11-19T00:48:53.135Z,0
2016-11-19T00:49:53.155Z,0
2016-11-19T00:50:53.171Z,0
2016-11-19T00:51:53.186Z,0
2016-11-19T00:52:53.200Z,0
2016-11-19T00:53:53.219Z,0
2016-11-19T00:54:53.223Z,0
2016-11-19T00:55:53.249Z,0
2016-11-19T00:56:53.254Z,0
2016-11-19T00:57:53.267Z,0
2016-11-19T00:58:53.281Z,0
2016-11-19T00:59:53.291Z,0
2016-11-19T01:00:53.306Z,0
2016-11-19T01:01:53.317Z,0
2016-11-19T01:02:53.343Z,0
2016-11-19T01:03:53.346Z,0
2016-11-19T01:04:53.364Z,0
2016-11-19T01:05:53.379Z,0
2016-11-19T01:06:53.405Z,0
2016-11-19T01:07:53.404Z,0
2016-11-19T01:08:53.412Z,0
2016-11-19T01:09:53.437Z,0
2016-11-19T01:10:53.440Z,0
2016-11-19T01:11:53.468Z,0
2016-11-19T01:12:53.476Z,0
2016-11-19T01:13:53.493Z,0
2016-11-19T01:14:53.503Z,0
2016-11-19T01:15:53.515Z,0
2016-11-19T01:16:53.531Z,0
2016-11-19T01:17:53.546Z,0
2016-11-19T01:18:53.561Z,0
2016-11-19T01:19:53.576Z,0
2016-11-19T01:20:53.582Z,0
2016-11-19T01:21:53.603Z,0
2016-11-19T01:22:53.615Z,0
2016-11-19T01:23:53.627Z,0
2016-11-19T01:24:53.644Z,0
2016-11-19T01:25:53.664Z,0
2016-11-19T01:26:53.672Z,0
2016-11-19T01:27:53.690Z,0
2016-11-19T01:28:53.695Z,0
2016-11-19T01:29:53.719Z,0
2016-11-19T01:30:53.727Z,0
2016-11-19T01:31:53.767Z,0
2016-11-19T01:32:53.755Z,0
2016-11-19T01:33:53.777Z,0
2016-11-19T01:34:53.790Z,0
2016-11-19T01:35:53.787Z,0
2016-11-19T01:36:53.799Z,0
2016-11-19T01:37:53.827Z,0
2016-11-19T01:38:53.843Z,0
2016-11-19T01:39:53.851Z,0
2016-11-19T01:40:53.861Z,0
2016-11-19T01:41:53.874Z,0
2016-11-19T01:42:53.885Z,0
2016-11-19T01:43:53.908Z,0
2016-11-19T01:44:53.921Z,0
2016-11-19T01:45:53.920Z,0
2016-11-19T01:46:53.935Z,0
2016-11-19T01:47:53.948Z,0
2016-11-19T01:48:53.981Z,0
2016-11-19T01:49:53.991Z,0
2016-11-19T01:50:53.999Z,0
2016-11-19T01:51:54.035Z,0
2016-11-19T01:52:54.036Z,0
2016-11-19T01:53:54.053Z,0
2016-11-19T01:54:54.043Z,0
2016-11-19T01:55:54.069Z,0
2016-11-19T01:56:54.072Z,0
2016-11-19T01:57:54.091Z,0
2016-11-19T01:58:54.107Z,0
2016-11-19T01:59:54.135Z,0
2016-11-19T02:00:54.136Z,0
2016-11-19T02:01:54.165Z,0
2016-11-19T02:02:54.170Z,0
2016-11-19T02:03:54.174Z,0
2016-11-19T02:04:54.180Z,0
2016-11-19T02:05:54.196Z,0
2016-11-19T02:06:54.213Z,0
2016-11-19T02:07:54.236Z,0
2016-11-19T02:08:54.250Z,0
2016-11-19T02:09:54.254Z,0
2016-11-19T02:10:54.279Z,0
2016-11-19T02:11:54.290Z,0
2016-11-19T02:12:54.303Z,0
2016-11-19T02:13:54.319Z,0
2016-11-19T02:14:54.326Z,0
2016-11-19T02:15:54.336Z,0
2016-11-19T02:16:54.350Z,0
2016-11-19T02:17:54.370Z,0
2016-11-19T02:18:54.390Z,0
2016-11-19T02:19:54.433Z,0
2016-11-19T02:20:54.408Z,0
2016-11-19T02:21:54.424Z,0
2016-11-19T02:22:54.437Z,0
2016-11-19T02:23:54.454Z,0
2016-11-19T02:24:54.465Z,0
2016-11-19T02:25:54.469Z,0
2016-11-19T02:26:54.499Z,0
2016-11-19T02:27:54.518Z,0
2016-11-19T02:28:54.528Z,0
2016-11-19T02:29:54.534Z,0
2016-11-19T02:30:54.541Z,0
2016-11-19T02:31:54.579Z,0
2016-11-19T02:32:54.582Z,0
2016-11-19T02:33:54.588Z,0
2016-11-19T02:34:54.604Z,0
2016-11-19T02:35:54.611Z,0
2016-11-19T02:36:54.631Z,0
2016-11-19T02:37:54.649Z,0
2016-11-19T02:38:54.657Z,0
2016-11-19T02:39:54.671Z,0
2016-11-19T02:40:54.715Z,0
2016-11-19T02:41:54.704Z,0
2016-11-19T02:42:54.721Z,0
2016-11-19T02:43:54.763Z,0
2016-11-19T02:44:54.745Z,0
2016-11-19T02:45:54.766Z,0
2016-11-19T02:46:54.773Z,0
2016-11-19T02:47:54.781Z,0
2016-11-19T02:48:54.795Z,0
2016-11-19T02:49:54.808Z,0
2016-11-19T02:50:54.824Z,0
2016-11-19T02:51:54.832Z,0
2016-11-19T02:52:54.855Z,0
2016-11-19T02:53:54.863Z,0
2016-11-19T02:54:54.889Z,0
2016-11-19T02:55:54.894Z,0
2016-11-19T02:56:54.907Z,0
2016-11-19T02:57:55.005Z,0
2016-11-19T02:58:54.931Z,0
2016-11-19T02:59:54.945Z,0
2016-11-19T03:00:54.977Z,0
2016-11-19T03:01:54.963Z,0
2016-11-19T03:02:55.003Z,0
2016-11-19T03:03:55.011Z,0
2016-11-19T03:04:55.014Z,0
2016-11-19T03:05:55.034Z,0
2016-11-19T03:06:55.045Z,0
2016-11-19T03:07:55.056Z,0
2016-11-19T03:08:55.073Z,0
2016-11-19T03:09:55.084Z,0
2016-11-19T03:10:55.103Z,0
2016-11-19T03:11:55.110Z,0
2016-11-19T03:12:55.123Z,0
2016-11-19T03:13:55.129Z,0
2016-11-19T03:14:55.161Z,0
2016-11-19T03:15:55.168Z,0
2016-11-19T03:16:55.180Z,0
2016-11-19T03:17:55.186Z,0
2016-11-19T03:18:55.209Z,0
2016-11-19T03:19:55.226Z,0
2016-11-19T03:20:55.235Z,0
2016-11-19T03:21:55.250Z,0
2016-11-19T03:22:55.265Z,0
2016-11-19T03:23:55.271Z,0
2016-11-19T03:24:55.294Z,0
2016-11-19T03:25:55.300Z,0
2016-11-19T03:26:55.316Z,0
2016-11-19T03:27:55.331Z,0
2016-11-19T03:28:55.349Z,0
2016-11-19T03:29:55.353Z,0
2016-11-19T03:30:55.374Z,0
2016-11-19T03:31:55.386Z,0
2016-11-19T03:32:55.400Z,0
2016-11-19T03:33:55.411Z,0
2016-11-19T03:34:55.408Z,0
2016-11-19T03:35:55.441Z,0
2016-11-19T03:36:55.450Z,0
2016-11-19T03:37:55.461Z,0
2016-11-19T03:38:55.477Z,0
2016-11-19T03:39:55.480Z,0
2016-11-19T03:40:55.518Z,0
2016-11-19T03:41:55.514Z,0
2016-11-19T03:42:55.536Z,0
2016-11-19T03:43:55.545Z,0
2016-11-19T03:44:55.562Z,0
2016-11-19T03:45:55.567Z,0
2016-11-19T03:46:55.593Z,0
2016-11-19T03:47:55.609Z,0
2016-11-19T03:48:55.614Z,0
2016-11-19T03:49:55.625Z,0
2016-11-19T03:50:55.640Z,0
2016-11-19T03:51:55.664Z,0
2016-11-19T03:52:55.666Z,0
2016-11-19T03:53:55.713Z,0
2016-11-19T03:54:55.688Z,0
2016-11-19T03:55:55.721Z,0
2016-11-19T03:56:55.809Z,0
2016-11-19T03:57:55.740Z,0
2016-11-19T03:58:55.757Z,0
2016-11-19T03:59:55.773Z,0
2016-11-19T04:01:25.461Z,0
2016-11-19T04:01:55.784Z,0
2016-11-19T04:02:55.798Z,0
2016-11-19T04:03:55.815Z,0
2016-11-19T04:04:55.828Z,0
2016-11-19T04:05:55.850Z,0
2016-11-19T04:06:55.864Z,0
2016-11-19T04:07:55.866Z,0
2016-11-19T04:08:55.915Z,0
2016-11-19T04:09:55.896Z,0
2016-11-19T04:10:55.917Z,0
2016-11-19T04:11:55.931Z,0
2016-11-19T04:12:55.928Z,0
2016-11-19T04:13:55.957Z,0
2016-11-19T04:14:56.025Z,0
2016-11-19T04:15:55.963Z,0
2016-11-19T04:16:56.027Z,0
2016-11-19T04:17:56.009Z,0
2016-11-19T04:18:56.116Z,0
2016-11-19T04:19:56.030Z,0
2016-11-19T04:20:56.122Z,0
2016-11-19T04:21:56.051Z,0
2016-11-19T04:22:56.121Z,0
2016-11-19T04:23:56.074Z,0
2016-11-19T04:24:56.122Z,0
2016-11-19T04:25:56.108Z,0
2016-11-19T04:26:56.155Z,0
2016-11-19T04:27:56.168Z,0
2016-11-19T04:28:56.165Z,0
2016-11-19T04:29:56.165Z,0
2016-11-19T04:30:56.214Z,0
2016-11-19T04:31:56.184Z,0
2016-11-19T04:32:56.218Z,0
2016-11-19T04:33:56.214Z,0
2016-11-19T04:34:56.246Z,0
2016-11-19T04:35:56.265Z,0
2016-11-19T04:36:56.273Z,0
2016-11-19T04:37:56.260Z,0
2016-11-19T04:38:56.275Z,0
2016-11-19T04:39:56.325Z,0
2016-11-19T04:40:56.307Z,0
2016-11-19T04:41:56.312Z,0
2016-11-19T04:42:56.337Z,0
2016-11-19T04:43:56.354Z,0
2016-11-19T04:44:56.364Z,0
2016-11-19T04:45:56.404Z,0
2016-11-19T04:46:56.382Z,0
2016-11-19T04:47:56.397Z,0
2016-11-19T04:48:56.411Z,0
2016-11-19T04:49:56.434Z,0
2016-11-19T04:50:56.436Z,0
2016-11-19T04:51:56.456Z,0
2016-11-19T04:52:56.471Z,0
2016-11-19T04:53:56.478Z,0
2016-11-19T04:54:56.505Z,0
2016-11-19T04:55:56.493Z,0
2016-11-19T04:56:56.518Z,0
2016-11-19T04:57:56.536Z,0
2016-11-19T04:58:56.543Z,0
2016-11-19T04:59:56.566Z,0
2016-11-19T05:00:56.579Z,0
2016-11-19T05:01:56.589Z,0
2016-11-19T05:02:56.595Z,0
2016-11-19T05:03:56.606Z,0
2016-11-19T05:04:56.624Z,0
2016-11-19T05:05:56.647Z,0
2016-11-19T05:06:56.657Z,0
2016-11-19T05:07:56.659Z,0
2016-11-19T05:08:56.676Z,0
2016-11-19T05:09:56.704Z,0
2016-11-19T05:10:56.703Z,0
2016-11-19T05:11:56.707Z,0
2016-11-19T05:12:56.730Z,0
2016-11-19T05:13:56.745Z,0
2016-11-19T05:14:56.764Z,0
2016-11-19T05:15:56.771Z,0
2016-11-19T05:16:56.784Z,0
2016-11-19T05:17:56.796Z,0
2016-11-19T05:18:56.809Z,0
2016-11-19T05:19:56.829Z,0
2016-11-19T05:20:56.838Z,0
2016-11-19T05:21:56.851Z,0
2016-11-19T05:22:56.862Z,0
2016-11-19T05:23:56.886Z,0
2016-11-19T05:24:56.891Z,0
2016-11-19T05:25:56.915Z,0
2016-11-19T05:26:56.924Z,0
2016-11-19T05:27:56.923Z,0
2016-11-19T05:28:56.947Z,0
2016-11-19T05:29:56.960Z,0
2016-11-19T05:30:56.973Z,0
2016-11-19T05:31:56.980Z,0
2016-11-19T05:32:57.001Z,0
2016-11-19T05:33:57.007Z,0
2016-11-19T05:34:57.033Z,0
2016-11-19T05:35:57.030Z,0
2016-11-19T05:36:57.042Z,0
2016-11-19T05:37:57.063Z,0
2016-11-19T05:38:57.075Z,0
2016-11-19T05:39:57.120Z,0
2016-11-19T05:40:57.104Z,0
2016-11-19T05:41:57.113Z,0
2016-11-19T05:42:57.135Z,0
2016-11-19T05:43:57.135Z,0
2016-11-19T05:44:57.155Z,0
2016-11-19T05:45:57.161Z,0
2016-11-19T05:46:57.185Z,0
2016-11-19T05:47:57.196Z,0
2016-11-19T05:48:57.213Z,0
2016-11-19T05:49:57.222Z,0
2016-11-19T05:50:57.237Z,0
2016-11-19T05:51:57.250Z,0
2016-11-19T05:52:57.259Z,0
2016-11-19T05:53:57.275Z,0
2016-11-19T05:54:57.290Z,0
2016-11-19T05:55:57.302Z,0
2016-11-19T05:56:57.330Z,0
2016-11-19T05:57:57.331Z,0
2016-11-19T05:58:57.336Z,0
2016-11-19T05:59:57.362Z,0
2016-11-19T06:00:57.372Z,0
2016-11-19T06:01:57.378Z,0
2016-11-19T06:02:57.388Z,0
2016-11-19T06:03:57.400Z,0
2016-11-19T06:04:57.433Z,0
2016-11-19T06:05:57.423Z,0
2016-11-19T06:06:57.451Z,0
2016-11-19T06:07:57.470Z,0
2016-11-19T06:08:57.463Z,0
2016-11-19T06:09:57.485Z,0
2016-11-19T06:10:57.506Z,0
2016-11-19T06:11:57.511Z,0
2016-11-19T06:12:57.520Z,0
2016-11-19T06:13:57.582Z,0
2016-11-19T06:14:57.591Z,0
2016-11-19T06:15:57.608Z,0
2016-11-19T06:16:57.596Z,0
2016-11-19T06:17:57.587Z,0
2016-11-19T06:18:57.610Z,0
2016-11-19T06:19:57.619Z,0
2016-11-19T06:20:57.637Z,4
2016-11-19T06:21:57.648Z,4
2016-11-19T06:22:57.668Z,4
2016-11-19T06:23:57.666Z,4
2016-11-19T06:24:57.695Z,4
2016-11-19T06:25:57.690Z,8
2016-11-19T06:26:57.710Z,4
2016-11-19T06:27:57.722Z,8
2016-11-19T06:28:57.745Z,8
2016-11-19T06:29:57.753Z,8
2016-11-19T06:30:57.764Z,16
2016-11-19T06:31:57.785Z,12
2016-11-19T06:32:57.820Z,16
2016-11-19T06:33:57.847Z,24
2016-11-19T06:34:57.810Z,24
2016-11-19T06:35:57.825Z,32
2016-11-19T06:36:57.860Z,36
2016-11-19T06:37:57.856Z,40
2016-11-19T06:38:57.873Z,44
2016-11-19T06:39:57.888Z,48
2016-11-19T06:40:57.896Z,60
2016-11-19T06:41:57.908Z,68
2016-11-19T06:42:57.923Z,76
2016-11-19T06:43:57.944Z,84
2016-11-19T06:44:57.949Z,88
2016-11-19T06:45:57.962Z,88
2016-11-19T06:46:57.976Z,96
2016-11-19T06:47:57.984Z,96
2016-11-19T06:48:58.005Z,108
2016-11-19T06:49:58.019Z,124
2016-11-19T06:50:58.027Z,128
2016-11-19T06:51:58.047Z,132
2016-11-19T06:52:58.056Z,136
2016-11-19T06:53:58.060Z,144
2016-11-19T06:54:58.089Z,144
2016-11-19T06:55:58.094Z,148
2016-11-19T06:56:58.101Z,156
2016-11-19T06:57:58.126Z,164
2016-11-19T06:58:58.138Z,172
2016-11-19T06:59:58.154Z,180
2016-11-19T07:00:58.171Z,196
2016-11-19T07:01:58.181Z,212
2016-11-19T07:02:58.185Z,244
2016-11-19T07:03:58.211Z,280
2016-11-19T07:04:58.220Z,316
2016-11-19T07:05:58.236Z,352
2016-11-19T07:06:58.250Z,380
2016-11-19T07:07:58.262Z,412
2016-11-19T07:08:58.310Z,440
2016-11-19T07:09:58.292Z,460
2016-11-19T07:10:58.309Z,484
2016-11-19T07:11:58.317Z,512
2016-11-19T07:12:58.331Z,544
2016-11-19T07:13:58.346Z,584
2016-11-19T07:14:58.414Z,632
2016-11-19T07:15:58.381Z,680
2016-11-19T07:16:58.485Z,768
2016-11-19T07:17:58.398Z,864
2016-11-19T07:18:58.466Z,928
2016-11-19T07:19:58.511Z,980
2016-11-19T07:20:58.525Z,1044
2016-11-19T07:21:58.440Z,1132
2016-11-19T07:22:58.523Z,1184
2016-11-19T07:23:58.482Z,1296
2016-11-19T07:24:58.516Z,1380
2016-11-19T07:25:58.502Z,1428
2016-11-19T07:26:58.557Z,1468
2016-11-19T07:27:58.529Z,1500
2016-11-19T07:28:58.611Z,1520
2016-11-19T07:29:58.560Z,1632
2016-11-19T07:30:58.603Z,1752
2016-11-19T07:31:58.606Z,1876
2016-11-19T07:32:58.634Z,1988
2016-11-19T07:33:58.623Z,2084
2016-11-19T07:34:58.666Z,2160
2016-11-19T07:35:58.635Z,2204
2016-11-19T07:36:58.667Z,2216
2016-11-19T07:37:58.673Z,2152
2016-11-19T07:38:58.697Z,2132
2016-11-19T07:39:58.701Z,2168
2016-11-19T07:40:58.714Z,2228
2016-11-19T07:41:58.726Z,2264
2016-11-19T07:42:58.745Z,2260
2016-11-19T07:43:58.775Z,2080
2016-11-19T07:44:58.774Z,2100
2016-11-19T07:45:58.787Z,2136
2016-11-19T07:46:58.796Z,2192
2016-11-19T07:47:58.817Z,2296
2016-11-19T07:48:58.832Z,2548
2016-11-19T07:49:58.841Z,2456
2016-11-19T07:50:58.862Z,2572
2016-11-19T07:51:58.870Z,2464
2016-11-19T07:52:58.880Z,2264
2016-11-19T07:53:58.889Z,2256
2016-11-19T07:54:58.912Z,2212
2016-11-19T07:55:58.915Z,2184
2016-11-19T07:56:58.940Z,2188
2016-11-19T07:57:58.953Z,2144
2016-11-19T07:58:58.976Z,2100
2016-11-19T07:59:58.982Z,2052
2016-11-19T08:00:59.096Z,2028
2016-11-19T08:01:59.014Z,2020
2016-11-19T08:02:59.026Z,2000
2016-11-19T08:03:59.034Z,1980
2016-11-19T08:04:59.049Z,1948
2016-11-19T08:05:59.095Z,1920
2016-11-19T08:06:59.091Z,1892
2016-11-19T08:07:59.092Z,1856
2016-11-19T08:08:59.109Z,1832
2016-11-19T08:09:59.114Z,1816
2016-11-19T08:10:59.169Z,1800
2016-11-19T08:11:59.157Z,1784
2016-11-19T08:12:59.170Z,1776
2016-11-19T08:13:59.195Z,1768
2016-11-19T08:14:59.203Z,1752
2016-11-19T08:15:59.209Z,1736
2016-11-19T08:16:59.210Z,1732
2016-11-19T08:17:59.242Z,1712
2016-11-19T08:18:59.245Z,1704
2016-11-19T08:19:59.272Z,1708
2016-11-19T08:20:59.289Z,1724
2016-11-19T08:21:59.302Z,1744
2016-11-19T08:22:59.343Z,1772
2016-11-19T08:23:59.323Z,1792
2016-11-19T08:24:59.350Z,1820
2016-11-19T08:25:59.347Z,1864
2016-11-19T08:26:59.384Z,1876
2016-11-19T08:27:59.380Z,1900
2016-11-19T08:28:59.399Z,1928
2016-11-19T08:29:59.412Z,1968
2016-11-19T08:30:59.448Z,2008
2016-11-19T08:31:59.453Z,2036
2016-11-19T08:32:59.453Z,2084
2016-11-19T08:33:59.469Z,2128
2016-11-19T08:34:59.489Z,2144
2016-11-19T08:35:59.506Z,2160
2016-11-19T08:36:59.508Z,2168
2016-11-19T08:37:59.522Z,2164
2016-11-19T08:38:59.542Z,2172
2016-11-19T08:39:59.554Z,2164
2016-11-19T08:40:59.565Z,2184
2016-11-19T08:41:59.579Z,2172
2016-11-19T08:42:59.615Z,2148
2016-11-19T08:43:59.615Z,2184
2016-11-19T08:44:59.633Z,2256
2016-11-19T08:45:59.645Z,2284
2016-11-19T08:46:59.646Z,2280
2016-11-19T08:47:59.692Z,2296
2016-11-19T08:48:59.755Z,2300
2016-11-19T08:49:59.699Z,2312
2016-11-19T08:50:59.722Z,2280
2016-11-19T08:51:59.726Z,2244
2016-11-19T08:52:59.734Z,2252
2016-11-19T08:53:59.788Z,2304
2016-11-19T08:54:59.772Z,2348
2016-11-19T08:55:59.815Z,2340
2016-11-19T08:56:59.795Z,2336
2016-11-19T08:57:59.823Z,2348
2016-11-19T08:58:59.833Z,2364
2016-11-19T08:59:59.884Z,2416
2016-11-19T09:00:59.861Z,2436
2016-11-19T09:01:59.916Z,2432
2016-11-19T09:02:59.884Z,2440
2016-11-19T09:03:59.898Z,2448
2016-11-19T09:04:59.912Z,2436
2016-11-19T09:05:59.937Z,2424
2016-11-19T09:06:59.954Z,2440
2016-11-19T09:07:59.961Z,2436
2016-11-19T09:08:59.969Z,2444
2016-11-19T09:09:59.990Z,2424
2016-11-19T09:11:00.007Z,2440
2016-11-19T09:12:00.020Z,2464
2016-11-19T09:13:00.056Z,2460
2016-11-19T09:14:00.044Z,2448
2016-11-19T09:15:00.062Z,2452
2016-11-19T09:16:00.077Z,2464
2016-11-19T09:17:00.098Z,2504
2016-11-19T09:18:00.103Z,2564
2016-11-19T09:19:00.111Z,2648
2016-11-19T09:20:00.129Z,2728
2016-11-19T09:21:00.153Z,2812
2016-11-19T09:22:00.162Z,2884
2016-11-19T09:23:00.182Z,2932
2016-11-19T09:24:00.205Z,2948
2016-11-19T09:25:00.204Z,2956
2016-11-19T09:26:00.222Z,2932
2016-11-19T09:27:00.227Z,2904
2016-11-19T09:28:00.292Z,2908
2016-11-19T09:29:00.260Z,2936
2016-11-19T09:30:00.274Z,2968
2016-11-19T09:31:00.298Z,2996
2016-11-19T09:32:00.315Z,3032
2016-11-19T09:33:00.325Z,3068
2016-11-19T09:34:00.342Z,3128
2016-11-19T09:35:00.366Z,3200
2016-11-19T09:36:00.367Z,3236
2016-11-19T09:37:00.388Z,3272
2016-11-19T09:38:00.400Z,3384
2016-11-19T09:39:00.403Z,3420
2016-11-19T09:40:00.427Z,3356
2016-11-19T09:41:00.431Z,3392
2016-11-19T09:42:00.449Z,3452
2016-11-19T09:43:00.471Z,3484
2016-11-19T09:44:00.478Z,3472
2016-11-19T09:45:00.535Z,3380
2016-11-19T09:46:00.512Z,3260
2016-11-19T09:47:00.525Z,3192
2016-11-19T09:48:00.546Z,3188
2016-11-19T09:49:00.561Z,3200
2016-11-19T09:50:00.565Z,3144
2016-11-19T09:51:00.588Z,3060
2016-11-19T09:52:00.593Z,3004
2016-11-19T09:53:00.618Z,2996
2016-11-19T09:54:00.634Z,3028
2016-11-19T09:55:00.679Z,3112
2016-11-19T09:56:00.705Z,3172
2016-11-19T09:57:00.682Z,3284
2016-11-19T09:58:00.689Z,3400
2016-11-19T09:59:00.700Z,3368
2016-11-19T10:00:00.723Z,3268
2016-11-19T10:01:00.791Z,3236
2016-11-19T10:02:00.753Z,3276
2016-11-19T10:03:00.837Z,3384
2016-11-19T10:04:00.779Z,3472
2016-11-19T10:05:00.892Z,3492
2016-11-19T10:06:00.804Z,3500
2016-11-19T10:07:00.875Z,3548
2016-11-19T10:08:00.841Z,3596
2016-11-19T10:09:00.890Z,3612
2016-11-19T10:10:00.864Z,3564
2016-11-19T10:11:00.928Z,3504
2016-11-19T10:12:00.906Z,3468
2016-11-19T10:13:00.977Z,3440
2016-11-19T10:14:00.916Z,3404
2016-11-19T10:15:00.982Z,3352
2016-11-19T10:16:00.957Z,3280
2016-11-19T10:17:00.986Z,3196
2016-11-19T10:18:00.979Z,3152
2016-11-19T10:19:01.013Z,3136
2016-11-19T10:20:01.015Z,3124
2016-11-19T10:21:01.044Z,3084
2016-11-19T10:22:01.048Z,3044
2016-11-19T10:23:01.069Z,3036
2016-11-19T10:24:01.152Z,3068
2016-11-19T10:25:01.087Z,3128
2016-11-19T10:26:01.103Z,3144
2016-11-19T10:27:01.128Z,3112
2016-11-19T10:28:01.130Z,3008
2016-11-19T10:29:01.150Z,2940
2016-11-19T10:30:01.164Z,2956
2016-11-19T10:31:01.180Z,3000
2016-11-19T10:32:01.231Z,3016
2016-11-19T10:33:01.214Z,3020
2016-11-19T10:34:01.219Z,2984
2016-11-19T10:35:01.236Z,2936
2016-11-19T10:36:01.251Z,2864
2016-11-19T10:37:01.270Z,2800
2016-11-19T10:38:01.282Z,2772
2016-11-19T10:39:01.301Z,2796
2016-11-19T10:40:01.309Z,2884
2016-11-19T10:41:01.341Z,2956
2016-11-19T10:42:01.349Z,3048
2016-11-19T10:43:01.365Z,3152
2016-11-19T10:44:01.369Z,3300
2016-11-19T10:45:01.385Z,3468
2016-11-19T10:46:01.410Z,3608
2016-11-19T10:47:01.426Z,3680
2016-11-19T10:48:01.456Z,3732
2016-11-19T10:49:01.458Z,3784
2016-11-19T10:50:01.468Z,3860
2016-11-19T10:51:01.487Z,3948
2016-11-19T10:52:01.495Z,4004
2016-11-19T10:53:01.509Z,4056
2016-11-19T10:54:01.529Z,4064
2016-11-19T10:55:01.552Z,3984
2016-11-19T10:56:01.634Z,3868
2016-11-19T10:57:01.572Z,3704
2016-11-19T10:58:01.580Z,3516
2016-11-19T10:59:01.601Z,3400
2016-11-19T11:00:01.625Z,3400
2016-11-19T11:01:01.632Z,3468
2016-11-19T11:02:01.642Z,3560
2016-11-19T11:03:01.662Z,3596
2016-11-19T11:04:01.676Z,3564
2016-11-19T11:05:01.694Z,3468
2016-11-19T11:06:01.701Z,3424
2016-11-19T11:07:01.731Z,3380
2016-11-19T11:08:01.828Z,3308
2016-11-19T11:09:01.765Z,3260
2016-11-19T11:10:01.772Z,3220
2016-11-19T11:11:01.794Z,3188
2016-11-19T11:12:01.797Z,3144
2016-11-19T11:13:01.805Z,3136
2016-11-19T11:14:01.826Z,3280
2016-11-19T11:15:01.830Z,3528
2016-11-19T11:16:01.876Z,3868
2016-11-19T11:17:01.877Z,4140
2016-11-19T11:18:01.918Z,4260
2016-11-19T11:19:01.895Z,4284
2016-11-19T11:20:01.998Z,4216
2016-11-19T11:21:01.928Z,4088
2016-11-19T11:22:01.946Z,3928
2016-11-19T11:23:01.946Z,3848
2016-11-19T11:24:01.975Z,3760
2016-11-19T11:25:01.999Z,3688
2016-11-19T11:26:02.013Z,3608
2016-11-19T11:27:02.020Z,3536
2016-11-19T11:28:02.045Z,3464
2016-11-19T11:29:02.158Z,3364
2016-11-19T11:30:02.067Z,3312
2016-11-19T11:31:02.089Z,3300
2016-11-19T11:32:02.102Z,3272
2016-11-19T11:33:02.124Z,3288
2016-11-19T11:34:02.136Z,3384
2016-11-19T11:35:02.144Z,3492
2016-11-19T11:36:02.162Z,3624
2016-11-19T11:37:02.164Z,3752
2016-11-19T11:38:02.198Z,3816
2016-11-19T11:39:02.217Z,3856
2016-11-19T11:40:02.227Z,3880
2016-11-19T11:41:02.243Z,3832
2016-11-19T11:42:02.257Z,3756
2016-11-19T11:43:02.273Z,3688
2016-11-19T11:44:02.278Z,3688
2016-11-19T11:45:02.303Z,3680
2016-11-19T11:46:02.303Z,3564
2016-11-19T11:47:02.340Z,3376
2016-11-19T11:48:02.374Z,3192
2016-11-19T11:49:02.358Z,3032
2016-11-19T11:50:02.379Z,2984
2016-11-19T11:51:02.388Z,3080
2016-11-19T11:52:02.405Z,3232
2016-11-19T11:53:02.452Z,3340
2016-11-19T11:54:02.439Z,3436
2016-11-19T11:55:02.459Z,3576
2016-11-19T11:56:02.465Z,3684
2016-11-19T11:57:02.485Z,3756
2016-11-19T11:58:02.490Z,3736
2016-11-19T11:59:02.516Z,3640
2016-11-19T12:00:02.524Z,3440
2016-11-19T12:01:02.553Z,3316
2016-11-19T12:02:02.557Z,3100
2016-11-19T12:03:02.580Z,3216
2016-11-19T12:04:02.588Z,3860
2016-11-19T12:05:02.605Z,4260
2016-11-19T12:06:02.616Z,4496
2016-11-19T12:07:02.634Z,4264
2016-11-19T12:08:02.659Z,4008
2016-11-19T12:09:02.658Z,4076
2016-11-19T12:10:02.689Z,3852
2016-11-19T12:11:02.719Z,3520
2016-11-19T12:12:02.765Z,3776
2016-11-19T12:13:02.740Z,4424
2016-11-19T12:14:02.784Z,4756
2016-11-19T12:15:02.813Z,4676
2016-11-19T12:16:02.772Z,5192
2016-11-19T12:17:02.834Z,5392
2016-11-19T12:18:02.838Z,5148
2016-11-19T12:19:02.834Z,4500
2016-11-19T12:20:02.835Z,4108
2016-11-19T12:21:02.860Z,4020
2016-11-19T12:22:02.866Z,4164
2016-11-19T12:23:02.884Z,4164
2016-11-19T12:24:02.897Z,3928
2016-11-19T12:25:02.911Z,3752
2016-11-19T12:26:02.963Z,3588
2016-11-19T12:27:02.957Z,3260
2016-11-19T12:28:03.014Z,2808
2016-11-19T12:29:02.970Z,2548
2016-11-19T12:30:02.990Z,2376
2016-11-19T12:31:03.002Z,2328
2016-11-19T12:32:03.017Z,2540
2016-11-19T12:33:03.036Z,2824
2016-11-19T12:34:03.056Z,3092
2016-11-19T12:35:03.063Z,3108
2016-11-19T12:36:03.078Z,2968
2016-11-19T12:37:03.105Z,2840
2016-11-19T12:38:03.109Z,2652
2016-11-19T12:39:03.136Z,2472
2016-11-19T12:40:03.135Z,2320
2016-11-19T12:41:03.154Z,2156
2016-11-19T12:42:03.177Z,2008
2016-11-19T12:43:03.193Z,2028
2016-11-19T12:44:03.211Z,2140
2016-11-19T12:45:03.217Z,2300
2016-11-19T12:46:03.228Z,2532
2016-11-19T12:47:03.248Z,2680
2016-11-19T12:48:03.271Z,2728
2016-11-19T12:49:03.279Z,2668
2016-11-19T12:50:03.300Z,2572
2016-11-19T12:51:03.308Z,2460
2016-11-19T12:52:03.324Z,2260
2016-11-19T12:53:03.344Z,2040
2016-11-19T12:54:03.365Z,1796
2016-11-19T12:55:03.372Z,1584
2016-11-19T12:56:03.389Z,1500
2016-11-19T12:57:03.429Z,1456
2016-11-19T12:58:03.405Z,1516
2016-11-19T12:59:03.433Z,1648
2016-11-19T13:00:03.453Z,1880
2016-11-19T13:01:03.467Z,2204
2016-11-19T13:02:03.472Z,2536
2016-11-19T13:03:03.501Z,2736
2016-11-19T13:04:03.505Z,2788
2016-11-19T13:05:03.515Z,2724
2016-11-19T13:06:03.537Z,2620
2016-11-19T13:07:03.558Z,2496
2016-11-19T13:08:03.559Z,2292
2016-11-19T13:09:03.583Z,1996
2016-11-19T13:10:03.593Z,1756
2016-11-19T13:11:03.617Z,1640
2016-11-19T13:12:03.626Z,1668
2016-11-19T13:13:03.645Z,1768
2016-11-19T13:14:03.663Z,1888
2016-11-19T13:15:03.673Z,2232
2016-11-19T13:16:03.691Z,2756
2016-11-19T13:17:03.693Z,3120
2016-11-19T13:18:03.722Z,3052
2016-11-19T13:19:03.738Z,2660
2016-11-19T13:20:03.747Z,2660
2016-11-19T13:21:03.760Z,2876
2016-11-19T13:22:03.782Z,3148
2016-11-19T13:23:03.795Z,3540
2016-11-19T13:24:03.803Z,3768
2016-11-19T13:25:03.851Z,3688
2016-11-19T13:26:03.923Z,3520
2016-11-19T13:27:03.850Z,3420
2016-11-19T13:28:03.874Z,3396
2016-11-19T13:29:03.884Z,3944
2016-11-19T13:30:03.897Z,4412
2016-11-19T13:31:03.913Z,4580
2016-11-19T13:32:03.925Z,5324
2016-11-19T13:33:03.945Z,5344
2016-11-19T13:34:03.965Z,4988
2016-11-19T13:35:03.978Z,4292
2016-11-19T13:36:03.992Z,3960
2016-11-19T13:37:04.010Z,3596
2016-11-19T13:38:04.020Z,3240
2016-11-19T13:39:04.036Z,2920
2016-11-19T13:40:04.076Z,2632
2016-11-19T13:41:04.070Z,2564
2016-11-19T13:42:04.079Z,2560
2016-11-19T13:43:04.091Z,2548
2016-11-19T13:44:04.116Z,2536
2016-11-19T13:45:04.136Z,2552
2016-11-19T13:46:04.143Z,2488
2016-11-19T13:47:04.164Z,2456
2016-11-19T13:48:04.168Z,2420
2016-11-19T13:49:04.190Z,2376
2016-11-19T13:50:04.222Z,2288
2016-11-19T13:51:04.221Z,2228
2016-11-19T13:52:04.227Z,2260
2016-11-19T13:53:04.246Z,2256
2016-11-19T13:54:04.265Z,2248
2016-11-19T13:55:04.287Z,2296
2016-11-19T13:56:04.306Z,2372
2016-11-19T13:57:04.312Z,2480
2016-11-19T13:58:04.321Z,2548
2016-11-19T13:59:04.338Z,2516
2016-11-19T14:00:04.356Z,2460